createdAt,value
2019-05-05T00:02:10.574Z,99.90
2019-05-05T00:04:54.784Z,99.90
2019-05-05T00:07:34.641Z,99.90
2019-05-05T00:10:04.493Z,99.90
2019-05-05T00:12:44.848Z,99.90
2019-05-05T00:15:39.381Z,99.90
2019-05-05T00:18:07.175Z,99.90
2019-05-05T00:20:35.060Z,99.90
2019-05-05T00:23:05.119Z,99.90
2019-05-05T00:25:34.287Z,99.90
2019-05-05T00:28:02.130Z,99.90
2019-05-05T00:30:30.103Z,99.90
2019-05-05T00:32:57.958Z,99.90
2019-05-05T00:35:25.852Z,99.90
2019-05-05T00:37:54.449Z,99.90
2019-05-05T00:40:24.830Z,99.90
2019-05-05T00:42:54.709Z,99.90
2019-05-05T00:45:22.515Z,99.90
2019-05-05T00:48:04.673Z,99.90
2019-05-05T00:50:34.339Z,99.90
2019-05-05T00:53:02.463Z,99.90
2019-05-05T00:55:30.291Z,99.90
2019-05-05T00:57:58.143Z,99.90
2019-05-05T01:00:54.882Z,99.90
2019-05-05T01:03:24.346Z,99.90
2019-05-05T01:06:04.528Z,99.90
2019-05-05T01:08:32.598Z,99.90
2019-05-05T01:11:00.480Z,99.90
2019-05-05T01:13:28.239Z,99.90
2019-05-05T01:15:56.192Z,99.90
2019-05-05T01:18:24.593Z,99.90
2019-05-05T01:20:52.586Z,99.90
2019-05-05T01:23:20.542Z,99.90
2019-05-05T01:25:48.788Z,99.90
2019-05-05T01:28:16.728Z,99.90
2019-05-05T01:30:47.295Z,99.90
2019-05-05T01:33:21.359Z,99.90
2019-05-05T01:35:49.151Z,99.90
2019-05-05T01:38:28.155Z,99.90
2019-05-05T01:41:04.199Z,99.90
2019-05-05T01:43:32.217Z,99.90
2019-05-05T01:46:00.111Z,99.90
2019-05-05T01:48:27.990Z,99.90
2019-05-05T01:50:55.762Z,99.90
2019-05-05T01:53:24.539Z,99.90
2019-05-05T01:55:54.227Z,99.90
2019-05-05T01:58:24.334Z,99.90
2019-05-05T02:00:51.799Z,99.90
2019-05-05T02:03:20.075Z,99.90
2019-05-05T02:05:48.139Z,99.90
2019-05-05T02:08:15.922Z,99.90
2019-05-05T02:10:45.372Z,99.90
2019-05-05T02:13:13.438Z,99.90
2019-05-05T02:15:41.370Z,99.90
2019-05-05T02:18:09.183Z,99.90
2019-05-05T02:20:38.762Z,99.90
2019-05-05T02:23:06.836Z,99.90
2019-05-05T02:25:34.696Z,99.90
2019-05-05T02:28:04.321Z,99.90
2019-05-05T02:30:39.520Z,99.90
2019-05-05T02:33:10.030Z,99.90
2019-05-05T02:35:57.064Z,99.90
2019-05-05T02:38:26.093Z,99.90
2019-05-05T02:40:54.973Z,99.90
2019-05-05T02:43:25.097Z,99.90
2019-05-05T02:46:05.521Z,99.90
2019-05-05T02:48:35.479Z,99.90
2019-05-05T02:51:06.641Z,99.90
2019-05-05T02:53:35.819Z,99.90
2019-05-05T02:56:05.679Z,99.90
2019-05-05T02:58:35.047Z,99.90
2019-05-05T03:01:15.028Z,99.90
2019-05-05T03:03:43.825Z,99.90
2019-05-05T03:06:11.888Z,99.90
2019-05-05T03:08:41.207Z,99.90
2019-05-05T03:11:09.644Z,99.90
2019-05-05T03:13:38.818Z,99.90
2019-05-05T03:16:10.443Z,99.90
2019-05-05T03:18:38.299Z,99.90
2019-05-05T03:21:07.485Z,99.90
2019-05-05T03:23:35.547Z,99.90
2019-05-05T03:26:04.021Z,99.90
2019-05-05T03:28:41.459Z,99.90
2019-05-05T03:31:09.549Z,99.90
2019-05-05T03:33:37.511Z,99.90
2019-05-05T03:36:05.367Z,99.90
2019-05-05T03:38:33.767Z,99.90
2019-05-05T03:41:03.656Z,99.90
2019-05-05T03:43:34.215Z,99.90
2019-05-05T03:46:04.732Z,99.90
2019-05-05T03:48:34.523Z,99.90
2019-05-05T03:51:16.056Z,99.90
2019-05-05T03:53:33.748Z,99.90
2019-05-05T03:56:03.753Z,99.90
2019-05-05T03:58:31.952Z,99.90
2019-05-05T04:01:11.899Z,99.90
2019-05-05T04:03:39.703Z,99.90
2019-05-05T04:06:07.918Z,99.90
2019-05-05T04:08:35.743Z,99.90
2019-05-05T04:11:03.971Z,99.90
2019-05-05T04:13:34.456Z,99.90
2019-05-05T04:16:13.647Z,99.90
2019-05-05T04:18:46.461Z,99.90
2019-05-05T04:21:14.591Z,99.90
2019-05-05T04:23:44.162Z,99.90
2019-05-05T04:26:14.126Z,99.90
2019-05-05T04:28:43.517Z,99.90
2019-05-05T04:31:13.424Z,99.90
2019-05-05T04:33:40.743Z,99.90
2019-05-05T04:36:08.527Z,99.90
2019-05-05T04:38:36.320Z,99.90
2019-05-05T04:41:04.122Z,99.90
2019-05-05T04:43:33.743Z,99.90
2019-05-05T04:46:01.414Z,99.90
2019-05-05T04:48:35.970Z,99.90
2019-05-05T04:51:13.934Z,99.90
2019-05-05T04:54:00.181Z,99.90
2019-05-05T04:56:29.934Z,99.90
2019-05-05T04:58:57.787Z,99.90
2019-05-05T05:01:25.623Z,99.90
2019-05-05T05:04:00.171Z,99.90
2019-05-05T05:06:40.642Z,99.90
2019-05-05T05:09:10.456Z,99.90
2019-05-05T05:11:38.357Z,99.90
2019-05-05T05:14:06.375Z,99.90
2019-05-05T05:16:35.706Z,99.90
2019-05-05T05:19:04.340Z,99.90
2019-05-05T05:21:34.138Z,99.90
2019-05-05T05:24:03.865Z,99.90
2019-05-05T05:26:33.474Z,99.90
2019-05-05T05:29:01.315Z,99.90
2019-05-05T05:31:29.195Z,99.90
2019-05-05T05:33:57.103Z,99.90
2019-05-05T05:36:25.170Z,99.90
2019-05-05T05:38:54.859Z,99.90
2019-05-05T05:41:40.959Z,99.90
2019-05-05T05:44:16.749Z,99.90
2019-05-05T05:47:03.599Z,99.90
2019-05-05T05:49:50.855Z,99.90
2019-05-05T05:52:19.410Z,99.90
2019-05-05T05:54:47.259Z,99.90
2019-05-05T05:57:15.043Z,99.90
2019-05-05T05:59:44.445Z,99.90
2019-05-05T06:02:15.241Z,99.90
2019-05-05T06:04:41.891Z,99.90
2019-05-05T06:07:09.771Z,99.90
2019-05-05T06:09:37.893Z,99.90
2019-05-05T06:12:05.666Z,99.90
2019-05-05T06:14:34.176Z,99.90
2019-05-05T06:17:04.112Z,99.90
2019-05-05T06:19:33.286Z,99.90
2019-05-05T06:22:03.390Z,99.90
2019-05-05T06:24:31.100Z,99.90
2019-05-05T06:26:58.914Z,99.90
2019-05-05T06:29:27.080Z,99.90
2019-05-05T06:31:55.159Z,99.90
2019-05-05T06:34:24.395Z,99.90
2019-05-05T06:36:53.754Z,99.90
2019-05-05T06:39:24.034Z,99.90
2019-05-05T06:42:04.514Z,99.90
2019-05-05T06:44:45.265Z,99.90
2019-05-05T06:47:33.993Z,99.90
2019-05-05T06:50:03.662Z,99.90
2019-05-05T06:52:41.992Z,99.90
2019-05-05T06:55:01.103Z,99.90
2019-05-05T06:57:28.875Z,99.90
2019-05-05T06:59:56.743Z,99.90
2019-05-05T07:02:24.603Z,99.90
2019-05-05T07:04:54.504Z,99.90
2019-05-05T07:07:23.601Z,99.90
2019-05-05T07:09:51.562Z,99.90
2019-05-05T07:12:19.336Z,99.90
2019-05-05T07:14:47.123Z,99.90
2019-05-05T07:17:14.962Z,99.90
2019-05-05T07:19:44.965Z,99.90
2019-05-05T07:22:14.061Z,99.90
2019-05-05T07:24:43.605Z,99.90
2019-05-05T07:27:13.661Z,99.90
2019-05-05T07:29:43.513Z,99.90
2019-05-05T07:32:11.095Z,99.90
2019-05-05T07:35:04.898Z,99.90
2019-05-05T07:37:34.408Z,99.90
2019-05-05T07:40:04.250Z,99.90
2019-05-05T07:42:33.557Z,99.90
2019-05-05T07:45:01.464Z,99.90
2019-05-05T07:47:29.392Z,99.90
2019-05-05T07:49:57.192Z,99.90
2019-05-05T07:52:25.039Z,99.90
2019-05-05T07:54:54.966Z,99.90
2019-05-05T07:57:23.763Z,99.90
2019-05-05T07:59:54.016Z,99.90
2019-05-05T08:02:23.520Z,99.90
2019-05-05T08:04:51.055Z,99.90
2019-05-05T08:07:19.176Z,99.90
2019-05-05T08:09:46.981Z,99.90
2019-05-05T08:12:14.868Z,99.90
2019-05-05T08:14:44.389Z,99.90
2019-05-05T08:17:30.627Z,99.90
2019-05-05T08:20:05.916Z,99.90
2019-05-05T08:22:34.052Z,99.90
2019-05-05T08:25:10.644Z,99.90
2019-05-05T08:27:46.073Z,99.90
2019-05-05T08:30:20.125Z,99.40
2019-05-05T08:32:48.349Z,99.40
2019-05-05T08:35:16.243Z,98.60
2019-05-05T08:37:44.099Z,98.30
2019-05-05T08:40:12.046Z,98.60
2019-05-05T08:42:39.963Z,96.50
2019-05-05T08:45:07.744Z,96.40
2019-05-05T08:47:35.610Z,96.10
2019-05-05T08:50:04.175Z,94.80
2019-05-05T08:52:34.166Z,94.70
2019-05-05T08:55:01.787Z,93.60
2019-05-05T08:57:29.804Z,91.80
2019-05-05T08:59:57.575Z,93.20
2019-05-05T09:02:25.504Z,89.60
2019-05-05T09:04:53.895Z,87.00
2019-05-05T09:07:24.155Z,87.00
2019-05-05T09:09:51.296Z,88.10
2019-05-05T09:12:19.182Z,88.40
2019-05-05T09:14:47.039Z,89.40
2019-05-05T09:17:15.130Z,89.10
2019-05-05T09:19:44.902Z,87.60
2019-05-05T09:22:14.007Z,87.10
2019-05-05T09:24:49.287Z,84.20
2019-05-05T09:27:34.031Z,83.60
2019-05-05T09:30:03.865Z,85.60
2019-05-05T09:32:31.611Z,85.00
2019-05-05T09:34:59.636Z,87.50
2019-05-05T09:37:27.896Z,88.40
2019-05-05T09:39:55.672Z,90.00
2019-05-05T09:42:23.693Z,90.40
2019-05-05T09:44:51.542Z,89.10
2019-05-05T09:47:19.432Z,89.10
2019-05-05T09:49:47.205Z,80.10
2019-05-05T09:52:15.056Z,81.20
2019-05-05T09:54:43.862Z,77.90
2019-05-05T09:57:14.308Z,76.90
2019-05-05T09:59:43.910Z,78.10
2019-05-05T10:02:11.224Z,79.00
2019-05-05T10:04:39.106Z,78.10
2019-05-05T10:07:06.963Z,75.50
2019-05-05T10:09:34.926Z,75.30
2019-05-05T10:12:04.705Z,75.70
2019-05-05T10:17:14.075Z,74.80
2019-05-05T10:19:41.675Z,73.40
2019-05-05T10:22:09.526Z,72.40
2019-05-05T10:24:44.351Z,71.00
2019-05-05T10:27:12.333Z,69.50
2019-05-05T10:29:40.223Z,67.10
2019-05-05T10:32:08.001Z,63.60
2019-05-05T10:34:35.839Z,62.20
2019-05-05T10:37:04.212Z,61.70
2019-05-05T10:39:36.883Z,61.20
2019-05-05T10:42:04.755Z,59.70
2019-05-05T10:44:34.055Z,58.50
2019-05-05T10:47:01.987Z,56.10
2019-05-05T10:49:29.780Z,57.00
2019-05-05T10:51:57.560Z,59.00
2019-05-05T10:54:25.455Z,60.20
2019-05-05T10:56:53.292Z,60.70
2019-05-05T10:59:21.058Z,59.80
2019-05-05T11:01:49.114Z,59.20
2019-05-05T11:04:17.072Z,60.20
2019-05-05T11:06:45.162Z,61.30
2019-05-05T11:09:13.942Z,61.80
2019-05-05T11:11:43.780Z,60.70
2019-05-05T11:14:14.013Z,61.10
2019-05-05T11:16:41.305Z,58.10
2019-05-05T11:19:09.182Z,59.80
2019-05-05T11:21:37.001Z,60.40
2019-05-05T11:24:04.843Z,60.00
2019-05-05T11:26:33.971Z,58.90
2019-05-05T11:29:01.804Z,58.60
2019-05-05T11:31:29.708Z,58.50
2019-05-05T11:34:09.499Z,58.50
2019-05-05T11:37:03.734Z,57.80
2019-05-05T11:39:33.901Z,57.90
2019-05-05T11:42:01.302Z,58.00
2019-05-05T11:44:30.487Z,58.10
2019-05-05T11:46:58.429Z,57.80
2019-05-05T11:49:26.263Z,58.10
2019-05-05T11:51:54.365Z,57.90
2019-05-05T11:54:24.355Z,59.90
2019-05-05T11:56:53.730Z,60.30
2019-05-05T11:59:23.542Z,60.90
2019-05-05T12:01:51.193Z,62.10
2019-05-05T12:04:19.057Z,62.30
2019-05-05T12:06:46.951Z,62.30
2019-05-05T12:09:24.733Z,61.70
2019-05-05T12:11:54.537Z,60.90
2019-05-05T12:14:27.112Z,60.90
2019-05-05T12:16:54.418Z,60.80
2019-05-05T12:19:24.178Z,61.10
2019-05-05T12:21:54.570Z,58.80
2019-05-05T12:24:26.332Z,57.80
2019-05-05T12:27:24.620Z,57.90
2019-05-05T12:29:55.935Z,57.90
2019-05-05T12:32:24.192Z,58.70
2019-05-05T12:34:53.783Z,59.10
2019-05-05T12:37:23.568Z,58.80
2019-05-05T12:39:51.176Z,57.40
2019-05-05T12:42:19.038Z,56.40
2019-05-05T12:44:53.781Z,56.50
2019-05-05T12:47:47.416Z,53.70
2019-05-05T12:50:15.607Z,52.40
2019-05-05T12:52:44.113Z,52.30
2019-05-05T12:55:14.132Z,52.50
2019-05-05T12:57:43.588Z,52.10
2019-05-05T13:00:14.504Z,52.40
2019-05-05T13:02:44.097Z,52.10
2019-05-05T13:05:11.804Z,52.80
2019-05-05T13:07:39.706Z,53.00
2019-05-05T13:10:08.031Z,55.00
2019-05-05T13:12:35.827Z,55.20
2019-05-05T13:15:04.354Z,56.30
2019-05-05T13:17:33.898Z,57.10
2019-05-05T13:20:11.363Z,57.10
2019-05-05T13:22:57.415Z,56.00
2019-05-05T13:25:34.276Z,56.30
2019-05-05T13:28:04.117Z,56.60
2019-05-05T13:30:34.293Z,56.10
2019-05-05T13:33:03.573Z,56.20
2019-05-05T13:35:31.395Z,56.20
2019-05-05T13:37:59.327Z,55.40
2019-05-05T13:40:27.135Z,56.10
2019-05-05T13:42:54.916Z,55.60
2019-05-05T13:45:28.779Z,56.50
2019-05-05T13:47:56.551Z,56.80
2019-05-05T13:50:34.103Z,56.60
2019-05-05T13:53:03.799Z,57.00
2019-05-05T13:55:31.435Z,57.70
2019-05-05T13:57:59.203Z,58.00
2019-05-05T14:00:27.071Z,57.90
2019-05-05T14:02:54.895Z,57.90
2019-05-05T14:05:24.006Z,57.80
2019-05-05T14:07:53.647Z,58.10
2019-05-05T14:10:23.539Z,57.70
2019-05-05T14:12:51.159Z,57.20
2019-05-05T14:15:19.158Z,57.40
2019-05-05T14:17:46.935Z,56.50
2019-05-05T14:20:14.883Z,57.10
2019-05-05T14:22:43.845Z,57.00
2019-05-05T14:25:16.011Z,56.20
2019-05-05T14:27:44.110Z,56.30
2019-05-05T14:30:18.959Z,56.10
2019-05-05T14:32:46.814Z,56.20
2019-05-05T14:35:34.237Z,56.60
2019-05-05T14:38:05.579Z,56.20
2019-05-05T14:40:33.987Z,56.20
2019-05-05T14:43:02.228Z,56.30
2019-05-05T14:45:30.255Z,56.60
2019-05-05T14:47:58.103Z,57.00
2019-05-05T14:50:26.339Z,57.20
2019-05-05T14:52:54.142Z,56.60
2019-05-05T14:55:22.521Z,56.50
2019-05-05T14:57:50.977Z,56.00
2019-05-05T15:00:20.723Z,56.10
2019-05-05T15:02:48.691Z,56.60
2019-05-05T15:05:34.914Z,56.40
2019-05-05T15:08:13.443Z,55.60
2019-05-05T15:10:59.219Z,55.30
2019-05-05T15:13:27.000Z,54.50
2019-05-05T15:15:54.795Z,53.40
2019-05-05T15:18:24.154Z,53.60
2019-05-05T15:20:52.219Z,53.30
2019-05-05T15:23:20.078Z,52.40
2019-05-05T15:25:54.011Z,52.10
2019-05-05T15:28:24.314Z,52.10
2019-05-05T15:30:51.592Z,51.90
2019-05-05T15:33:19.695Z,52.00
2019-05-05T15:35:48.886Z,51.70
2019-05-05T15:38:16.692Z,51.70
2019-05-05T15:40:46.509Z,52.30
2019-05-05T15:43:14.324Z,53.00
2019-05-05T15:45:43.339Z,52.60
2019-05-05T15:48:11.350Z,52.50
2019-05-05T15:50:39.211Z,52.70
2019-05-05T15:53:07.455Z,52.20
2019-05-05T15:55:35.232Z,52.70
2019-05-05T15:58:03.596Z,52.70
2019-05-05T16:00:33.638Z,52.50
2019-05-05T16:03:01.463Z,53.10
2019-05-05T16:05:29.235Z,53.50
2019-05-05T16:07:57.033Z,53.80
2019-05-05T16:10:25.315Z,53.70
2019-05-05T16:12:53.933Z,53.70
2019-05-05T16:15:50.186Z,52.30
2019-05-05T16:18:26.408Z,52.90
2019-05-05T16:21:03.506Z,51.80
2019-05-05T16:23:35.899Z,52.00
2019-05-05T16:26:03.932Z,51.50
2019-05-05T16:28:31.835Z,50.50
2019-05-05T16:30:59.626Z,49.40
2019-05-05T16:33:27.443Z,48.50
2019-05-05T16:35:55.295Z,47.80
2019-05-05T16:38:24.036Z,48.30
2019-05-05T16:40:53.619Z,47.50
2019-05-05T16:43:21.556Z,46.00
2019-05-05T16:45:49.423Z,41.70
2019-05-05T16:48:17.219Z,42.20
2019-05-05T16:50:45.004Z,42.80
2019-05-05T16:53:34.315Z,44.30
2019-05-05T16:56:01.659Z,45.70
2019-05-05T16:58:29.459Z,46.20
2019-05-05T17:00:57.332Z,47.30
2019-05-05T17:03:25.696Z,48.60
2019-05-05T17:05:54.656Z,48.60
2019-05-05T17:08:24.445Z,49.30
2019-05-05T17:10:52.405Z,48.70
2019-05-05T17:13:26.656Z,47.90
2019-05-05T17:16:13.467Z,47.70
2019-05-05T17:18:54.122Z,48.20
2019-05-05T17:21:34.137Z,47.90
2019-05-05T17:24:02.087Z,48.80
2019-05-05T17:26:29.959Z,49.80
2019-05-05T17:28:57.843Z,49.70
2019-05-05T17:31:25.753Z,49.70
2019-05-05T17:33:53.703Z,50.30
2019-05-05T17:36:21.811Z,50.40
2019-05-05T17:38:49.598Z,50.60
2019-05-05T17:41:29.103Z,51.00
2019-05-05T17:44:05.419Z,51.30
2019-05-05T17:46:46.727Z,51.30
2019-05-05T17:49:22.300Z,51.70
2019-05-05T17:52:05.980Z,51.80
2019-05-05T17:54:49.248Z,52.10
2019-05-05T17:57:17.149Z,52.30
2019-05-05T17:59:44.955Z,52.70
2019-05-05T18:02:12.798Z,52.90
2019-05-05T18:04:41.073Z,53.10
2019-05-05T18:07:28.170Z,53.30
2019-05-05T18:10:15.199Z,53.30
2019-05-05T18:13:03.670Z,53.40
2019-05-05T18:15:49.980Z,53.90
2019-05-05T18:18:17.748Z,54.30
2019-05-05T18:20:45.542Z,54.60
2019-05-05T18:23:13.853Z,55.30
2019-05-05T18:25:44.075Z,54.70
2019-05-05T18:28:18.859Z,54.80
2019-05-05T18:30:40.990Z,54.80
2019-05-05T18:33:08.844Z,54.70
2019-05-05T18:35:36.691Z,54.90
2019-05-05T18:38:04.624Z,54.90
2019-05-05T18:40:33.725Z,55.10
2019-05-05T18:43:04.053Z,54.90
2019-05-05T18:45:32.158Z,55.50
2019-05-05T18:47:59.958Z,56.40
2019-05-05T18:50:27.722Z,56.20
2019-05-05T18:52:55.608Z,56.50
2019-05-05T18:55:23.532Z,57.50
2019-05-05T18:57:51.414Z,57.70
2019-05-05T19:00:28.199Z,58.00
2019-05-05T19:03:00.043Z,58.50
2019-05-05T19:05:36.883Z,58.60
2019-05-05T19:08:10.983Z,59.20
2019-05-05T19:10:38.763Z,59.40
2019-05-05T19:13:06.653Z,59.50
2019-05-05T19:15:35.019Z,59.80
2019-05-05T19:18:04.076Z,60.10
2019-05-05T19:20:39.034Z,60.30
2019-05-05T19:23:06.863Z,61.00
2019-05-05T19:25:35.804Z,61.20
2019-05-05T19:28:04.742Z,61.80
2019-05-05T19:30:35.816Z,62.10
2019-05-05T19:33:04.419Z,62.20
2019-05-05T19:35:43.527Z,62.80
2019-05-05T19:38:01.887Z,62.80
2019-05-05T19:40:29.849Z,63.30
2019-05-05T19:42:57.755Z,63.60
2019-05-05T19:45:26.737Z,63.60
2019-05-05T19:47:54.735Z,63.90
2019-05-05T19:50:26.757Z,64.20
2019-05-05T19:52:54.555Z,64.50
2019-05-05T19:55:22.419Z,65.30
2019-05-05T19:57:50.282Z,65.90
2019-05-05T20:00:18.714Z,66.10
2019-05-05T20:02:46.526Z,66.30
2019-05-05T20:05:14.490Z,66.30
2019-05-05T20:07:43.931Z,66.60
2019-05-05T20:10:12.171Z,66.90
2019-05-05T20:12:39.947Z,67.20
2019-05-05T20:15:09.913Z,67.50
2019-05-05T20:17:38.011Z,68.00
2019-05-05T20:20:06.406Z,68.40
2019-05-05T20:22:34.789Z,68.80
2019-05-05T20:25:04.377Z,68.80
2019-05-05T20:27:34.368Z,69.80
2019-05-05T20:30:06.197Z,69.50
2019-05-05T20:32:38.274Z,70.00
2019-05-05T20:35:11.747Z,70.50
2019-05-05T20:37:44.447Z,71.20
2019-05-05T20:40:14.649Z,71.00
2019-05-05T20:42:44.768Z,72.00
2019-05-05T20:45:14.603Z,72.40
2019-05-05T20:47:43.959Z,72.20
2019-05-05T20:50:12.348Z,71.80
2019-05-05T20:52:40.143Z,71.90
2019-05-05T20:55:08.799Z,71.90
2019-05-05T20:57:36.581Z,72.30
2019-05-05T21:00:04.627Z,72.90
2019-05-05T21:02:33.902Z,73.20
2019-05-05T21:05:03.872Z,73.10
2019-05-05T21:07:31.534Z,73.40
2019-05-05T21:09:59.318Z,73.60
2019-05-05T21:12:39.164Z,73.90
2019-05-05T21:14:56.696Z,73.10
2019-05-05T21:17:24.527Z,73.20
2019-05-05T21:19:52.508Z,73.50
2019-05-05T21:22:36.577Z,73.50
2019-05-05T21:25:04.968Z,73.50
2019-05-05T21:27:34.083Z,73.90
2019-05-05T21:30:04.070Z,74.10
2019-05-05T21:32:33.916Z,75.00
2019-05-05T21:35:01.349Z,75.30
2019-05-05T21:37:29.195Z,75.60
2019-05-05T21:39:57.048Z,76.20
2019-05-05T21:42:25.210Z,76.60
2019-05-05T21:44:53.893Z,76.90
2019-05-05T21:47:23.846Z,77.20
2019-05-05T21:49:51.494Z,77.40
2019-05-05T21:52:27.127Z,77.80
2019-05-05T21:55:01.661Z,78.20
2019-05-05T21:57:46.574Z,78.90
2019-05-05T22:00:34.725Z,79.10
2019-05-05T22:03:04.519Z,79.70
2019-05-05T22:05:33.498Z,80.40
2019-05-05T22:08:01.478Z,81.10
2019-05-05T22:10:29.247Z,81.90
2019-05-05T22:12:57.061Z,83.40
2019-05-05T22:15:24.892Z,83.80
2019-05-05T22:17:54.302Z,85.20
2019-05-05T22:20:29.047Z,86.20
2019-05-05T22:22:57.130Z,87.50
2019-05-05T22:25:24.910Z,88.60
2019-05-05T22:27:54.465Z,89.70
2019-05-05T22:30:23.685Z,90.30
2019-05-05T22:32:52.007Z,90.80
2019-05-05T22:35:19.867Z,91.20
2019-05-05T22:37:47.666Z,91.60
2019-05-05T22:40:20.513Z,92.10
2019-05-05T22:42:48.676Z,92.60
2019-05-05T22:45:16.515Z,93.30
2019-05-05T22:47:44.303Z,94.00
2019-05-05T22:50:13.856Z,94.50
2019-05-05T22:52:41.918Z,95.20
2019-05-05T22:55:10.655Z,96.00
2019-05-05T22:57:38.466Z,96.70
2019-05-05T23:00:07.973Z,97.40
2019-05-05T23:02:38.304Z,97.90
2019-05-05T23:05:14.226Z,98.60
2019-05-05T23:07:43.841Z,99.30
2019-05-05T23:10:14.036Z,99.90
2019-05-05T23:12:41.407Z,99.90
2019-05-05T23:15:09.471Z,99.90
2019-05-05T23:17:46.244Z,99.90
2019-05-05T23:20:33.922Z,99.90
2019-05-05T23:23:08.139Z,99.90
2019-05-05T23:25:38.751Z,99.90
2019-05-05T23:28:06.635Z,99.90
2019-05-05T23:30:41.625Z,99.90
2019-05-05T23:33:04.279Z,99.90
2019-05-05T23:35:34.306Z,99.90
2019-05-05T23:38:03.421Z,99.90
2019-05-05T23:40:31.071Z,99.90
2019-05-05T23:42:58.839Z,99.90
2019-05-05T23:45:26.632Z,99.90
2019-05-05T23:47:54.870Z,99.90
2019-05-05T23:50:22.752Z,99.90
2019-05-05T23:52:50.532Z,99.90
2019-05-05T23:55:18.403Z,99.90
2019-05-05T23:57:46.334Z,99.90
